createdAt,value
2023-02-11T00:02:01.931Z,14.45
2023-02-11T00:04:29.761Z,14.07
2023-02-11T00:06:59.175Z,16.65
2023-02-11T00:09:27.419Z,14.13
2023-02-11T00:11:55.020Z,15.65
2023-02-11T00:14:23.104Z,13.00
2023-02-11T00:16:51.085Z,14.88
2023-02-11T00:19:18.991Z,18.35
2023-02-11T00:21:46.580Z,13.38
2023-02-11T00:24:16.185Z,15.52
2023-02-11T00:26:43.817Z,14.63
2023-02-11T00:29:14.169Z,13.50
2023-02-11T00:31:41.944Z,12.05
2023-02-11T00:34:10.048Z,15.60
2023-02-11T00:36:37.579Z,15.70
2023-02-11T00:39:05.755Z,15.32
2023-02-11T00:41:34.997Z,15.52
2023-02-11T00:44:03.724Z,15.90
2023-02-11T00:46:31.758Z,11.07
2023-02-11T00:48:59.598Z,14.38
2023-02-11T00:51:28.930Z,14.38
2023-02-11T00:53:57.404Z,13.40
2023-02-11T00:56:25.375Z,13.45
2023-02-11T00:58:55.118Z,14.38
2023-02-11T01:01:23.198Z,15.05
2023-02-11T01:03:51.526Z,15.40
2023-02-11T01:06:19.080Z,16.30
2023-02-11T01:08:47.457Z,14.40
2023-02-11T01:11:18.135Z,15.73
2023-02-11T01:13:47.885Z,15.43
2023-02-11T01:16:18.180Z,13.57
2023-02-11T01:18:46.668Z,13.32
2023-02-11T01:21:14.345Z,13.50
2023-02-11T01:23:42.616Z,15.30
2023-02-11T01:26:12.275Z,14.82
2023-02-11T01:28:40.293Z,15.27
2023-02-11T01:31:08.108Z,14.68
2023-02-11T01:33:37.730Z,13.45
2023-02-11T01:36:07.353Z,13.98
2023-02-11T01:38:36.141Z,12.70
2023-02-11T01:41:06.340Z,14.55
2023-02-11T01:43:38.288Z,13.48
2023-02-11T01:46:20.376Z,12.30
2023-02-11T01:48:53.344Z,15.68
2023-02-11T01:51:24.995Z,14.70
2023-02-11T01:53:54.220Z,14.60
2023-02-11T01:56:24.151Z,15.45
2023-02-11T01:58:55.720Z,15.27
2023-02-11T02:01:28.332Z,13.13
2023-02-11T02:04:01.826Z,14.63
2023-02-11T02:06:34.615Z,12.85
2023-02-11T02:09:06.655Z,12.32
2023-02-11T02:11:34.435Z,14.23
2023-02-11T02:14:02.507Z,12.75
2023-02-11T02:16:33.475Z,10.05
2023-02-11T02:19:24.995Z,12.98
2023-02-11T02:22:16.945Z,13.43
2023-02-11T02:25:17.431Z,11.60
2023-02-11T02:27:55.473Z,11.90
2023-02-11T02:30:50.389Z,12.80
2023-02-11T02:33:38.248Z,11.75
2023-02-11T02:36:14.816Z,11.45
2023-02-11T02:38:50.903Z,13.00
2023-02-11T02:41:23.280Z,11.88
2023-02-11T02:43:51.886Z,11.48
2023-02-11T02:46:22.905Z,12.43
2023-02-11T02:48:53.618Z,12.38
2023-02-11T02:51:59.036Z,11.70
2023-02-11T02:54:51.876Z,10.15
2023-02-11T02:57:29.844Z,11.50
2023-02-11T03:00:09.653Z,11.93
2023-02-11T03:02:47.680Z,11.80
2023-02-11T03:05:22.846Z,10.88
2023-02-11T03:07:57.036Z,13.63
2023-02-11T03:10:29.137Z,12.02
2023-02-11T03:12:58.246Z,12.35
2023-02-11T03:15:28.551Z,12.15
2023-02-11T03:18:00.628Z,13.10
2023-02-11T03:20:33.277Z,13.68
2023-02-11T03:23:06.233Z,12.68
2023-02-11T03:25:38.211Z,12.85
2023-02-11T03:28:13.716Z,12.48
2023-02-11T03:30:48.259Z,11.50
2023-02-11T03:33:24.160Z,12.10
2023-02-11T03:35:56.805Z,11.38
2023-02-11T03:38:30.986Z,12.30
2023-02-11T03:41:00.729Z,12.77
2023-02-11T03:43:34.101Z,11.82
2023-02-11T03:46:03.642Z,11.85
2023-02-11T03:48:36.410Z,12.52
2023-02-11T03:51:09.409Z,11.93
2023-02-11T03:53:41.029Z,11.98
2023-02-11T03:56:12.068Z,11.32
2023-02-11T03:58:40.006Z,11.35
2023-02-11T04:01:07.879Z,12.07
2023-02-11T04:03:35.985Z,12.27
2023-02-11T04:06:05.514Z,11.15
2023-02-11T04:08:33.494Z,12.77
2023-02-11T04:11:00.998Z,12.35
2023-02-11T04:13:29.368Z,10.70
2023-02-11T04:15:56.979Z,10.60
2023-02-11T04:18:24.922Z,11.02
2023-02-11T04:20:52.489Z,9.30
2023-02-11T04:23:21.965Z,10.80
2023-02-11T04:25:51.753Z,10.20
2023-02-11T04:28:20.000Z,8.50
2023-02-11T04:30:49.586Z,9.80
2023-02-11T04:33:17.622Z,11.00
2023-02-11T04:35:45.444Z,10.05
2023-02-11T04:38:13.583Z,11.52
2023-02-11T04:40:42.967Z,11.05
2023-02-11T04:43:10.905Z,10.43
2023-02-11T04:45:38.702Z,9.45
2023-02-11T04:48:06.724Z,13.48
2023-02-11T04:50:34.285Z,10.23
2023-02-11T04:53:02.247Z,10.65
2023-02-11T04:55:29.987Z,12.90
2023-02-11T04:57:59.371Z,13.30
2023-02-11T05:00:26.972Z,10.77
2023-02-11T05:02:54.953Z,12.82
2023-02-11T05:05:22.706Z,12.02
2023-02-11T05:07:50.643Z,11.38
2023-02-11T05:10:18.226Z,11.50
2023-02-11T05:12:48.290Z,9.98
2023-02-11T05:15:17.559Z,11.05
2023-02-11T05:17:45.550Z,10.65
2023-02-11T05:20:13.468Z,10.50
2023-02-11T05:22:41.700Z,10.65
2023-02-11T05:25:09.291Z,11.30
2023-02-11T05:27:38.831Z,11.27
2023-02-11T05:30:07.568Z,11.65
2023-02-11T05:32:37.081Z,10.15
2023-02-11T05:35:05.049Z,10.85
2023-02-11T05:37:33.092Z,11.05
2023-02-11T05:40:00.660Z,11.65
2023-02-11T05:42:28.621Z,12.27
2023-02-11T05:44:56.162Z,12.43
2023-02-11T05:47:24.023Z,10.90
2023-02-11T05:49:53.397Z,11.90
2023-02-11T05:52:21.527Z,12.13
2023-02-11T05:54:49.132Z,11.77
2023-02-11T05:57:17.530Z,12.02
2023-02-11T05:59:45.074Z,12.05
2023-02-11T06:02:13.013Z,11.98
2023-02-11T06:04:40.640Z,12.88
2023-02-11T06:07:10.190Z,12.50
2023-02-11T06:09:37.659Z,10.90
2023-02-11T06:12:06.221Z,11.70
2023-02-11T06:14:34.037Z,12.75
2023-02-11T06:17:01.863Z,12.10
2023-02-11T06:19:29.643Z,12.68
2023-02-11T06:21:57.724Z,12.82
2023-02-11T06:24:50.956Z,12.55
2023-02-11T06:27:14.848Z,12.10
2023-02-11T06:29:42.342Z,12.02
2023-02-11T06:32:28.141Z,12.20
2023-02-11T06:34:57.867Z,11.23
2023-02-11T06:37:25.608Z,11.32
2023-02-11T06:39:54.660Z,11.65
2023-02-11T06:42:22.598Z,11.57
2023-02-11T06:44:50.125Z,10.85
2023-02-11T06:47:18.136Z,12.00
2023-02-11T06:49:46.277Z,11.68
2023-02-11T06:52:14.278Z,12.55
2023-02-11T06:54:41.799Z,14.00
2023-02-11T06:57:11.369Z,12.98
2023-02-11T06:59:38.926Z,12.27
2023-02-11T07:02:09.484Z,13.13
2023-02-11T07:04:37.168Z,13.18
2023-02-11T07:07:05.161Z,12.63
2023-02-11T07:09:32.818Z,13.63
2023-02-11T07:12:00.771Z,12.50
2023-02-11T07:14:29.859Z,11.35
2023-02-11T07:16:57.826Z,12.52
2023-02-11T07:19:25.477Z,11.27
2023-02-11T07:21:53.745Z,12.52
2023-02-11T07:24:21.170Z,10.65
2023-02-11T07:26:49.003Z,12.02
2023-02-11T07:29:16.511Z,12.05
2023-02-11T07:31:45.804Z,12.02
2023-02-11T07:34:13.441Z,11.48
2023-02-11T07:36:41.265Z,11.80
2023-02-11T07:39:08.778Z,11.65
2023-02-11T07:41:37.969Z,11.88
2023-02-11T07:44:06.295Z,11.50
2023-02-11T07:46:34.321Z,12.10
2023-02-11T07:49:03.555Z,12.15
2023-02-11T07:51:31.868Z,12.88
2023-02-11T07:54:00.489Z,11.52
2023-02-11T07:56:29.012Z,15.13
2023-02-11T07:58:59.581Z,11.50
2023-02-11T08:01:28.180Z,13.43
2023-02-11T08:03:56.411Z,12.45
2023-02-11T08:06:27.682Z,12.50
2023-02-11T08:08:55.710Z,12.27
2023-02-11T08:11:25.515Z,12.52
2023-02-11T08:13:54.079Z,10.93
2023-02-11T08:16:24.585Z,11.43
2023-02-11T08:18:53.703Z,10.43
2023-02-11T08:21:22.057Z,10.98
2023-02-11T08:23:52.686Z,10.73
2023-02-11T08:26:23.396Z,10.35
2023-02-11T08:28:52.693Z,9.55
2023-02-11T08:31:23.263Z,11.15
2023-02-11T08:33:51.557Z,10.77
2023-02-11T08:36:22.209Z,11.30
2023-02-11T08:38:51.792Z,10.60
2023-02-11T08:41:20.131Z,11.60
2023-02-11T08:43:47.856Z,11.15
2023-02-11T08:46:19.716Z,10.55
2023-02-11T08:48:48.149Z,11.40
2023-02-11T08:51:17.889Z,10.80
2023-02-11T08:53:45.478Z,11.30
2023-02-11T08:56:15.667Z,11.55
2023-02-11T08:58:43.315Z,10.52
2023-02-11T09:01:12.430Z,11.07
2023-02-11T09:03:40.544Z,11.07
2023-02-11T09:06:10.534Z,11.23
2023-02-11T09:08:40.608Z,10.50
2023-02-11T09:11:09.628Z,10.82
2023-02-11T09:13:38.597Z,11.85
2023-02-11T09:16:08.082Z,11.05
2023-02-11T09:18:35.702Z,11.35
2023-02-11T09:21:04.817Z,11.27
2023-02-11T09:23:33.209Z,10.48
2023-02-11T09:26:08.146Z,11.00
2023-02-11T09:28:38.551Z,11.32
2023-02-11T09:31:07.365Z,10.60
2023-02-11T09:33:35.252Z,9.82
2023-02-11T09:36:04.561Z,9.35
2023-02-11T09:38:32.602Z,8.82
2023-02-11T09:41:00.598Z,9.65
2023-02-11T09:43:33.881Z,9.48
2023-02-11T09:46:05.252Z,9.80
2023-02-11T09:48:40.345Z,9.43
2023-02-11T09:51:19.530Z,9.50
2023-02-11T09:53:54.753Z,8.85
2023-02-11T09:56:24.536Z,9.70
2023-02-11T09:58:52.117Z,9.35
2023-02-11T10:01:30.847Z,8.57
2023-02-11T10:04:04.815Z,8.60
2023-02-11T10:06:39.908Z,9.38
2023-02-11T10:09:28.456Z,9.88
2023-02-11T10:12:11.951Z,10.80
2023-02-11T10:15:04.279Z,9.98
2023-02-11T10:17:42.847Z,9.20
2023-02-11T10:20:23.596Z,10.23
2023-02-11T10:22:54.592Z,10.75
2023-02-11T10:25:23.956Z,9.65
2023-02-11T10:27:55.065Z,10.10
2023-02-11T10:30:29.023Z,11.57
2023-02-11T10:33:04.056Z,10.32
2023-02-11T10:35:32.769Z,10.82
2023-02-11T10:38:01.392Z,11.25
2023-02-11T10:40:31.094Z,10.07
2023-02-11T10:43:03.850Z,11.00
2023-02-11T10:45:34.735Z,10.27
2023-02-11T10:48:26.701Z,9.65
2023-02-11T10:51:08.460Z,9.35
2023-02-11T10:53:36.947Z,10.85
2023-02-11T10:56:06.318Z,11.48
2023-02-11T10:58:40.782Z,10.55
2023-02-11T11:01:23.515Z,10.23
2023-02-11T11:03:53.065Z,10.30
2023-02-11T11:06:32.212Z,8.95
2023-02-11T11:09:00.187Z,10.35
2023-02-11T11:11:27.622Z,10.85
2023-02-11T11:13:57.772Z,10.55
2023-02-11T11:16:27.571Z,10.55
2023-02-11T11:19:15.363Z,10.68
2023-02-11T11:21:46.431Z,10.45
2023-02-11T11:24:19.852Z,10.98
2023-02-11T11:26:51.582Z,10.05
2023-02-11T11:29:24.308Z,11.10
2023-02-11T11:31:55.236Z,10.75
2023-02-11T11:34:28.950Z,11.00
2023-02-11T11:36:59.670Z,10.63
2023-02-11T11:39:31.298Z,10.27
2023-02-11T11:42:00.599Z,10.52
2023-02-11T11:44:31.828Z,11.32
2023-02-11T11:47:20.612Z,10.73
2023-02-11T11:49:55.840Z,10.68
2023-02-11T11:52:35.854Z,9.77
2023-02-11T11:55:13.415Z,10.32
2023-02-11T11:57:41.372Z,11.10
2023-02-11T12:00:16.977Z,9.55
2023-02-11T12:03:12.331Z,10.55
2023-02-11T12:05:51.095Z,9.00
2023-02-11T12:08:26.945Z,11.00
2023-02-11T12:11:07.119Z,11.15
2023-02-11T12:13:44.075Z,10.75
2023-02-11T12:16:25.227Z,10.15
2023-02-11T12:19:24.810Z,10.85
2023-02-11T12:22:01.520Z,10.50
2023-02-11T12:24:46.175Z,10.55
2023-02-11T12:27:23.144Z,10.25
2023-02-11T12:30:03.947Z,9.27
2023-02-11T12:32:44.557Z,9.20
2023-02-11T12:35:31.137Z,10.05
2023-02-11T12:38:15.861Z,9.40
2023-02-11T12:41:00.604Z,10.75
2023-02-11T12:43:36.074Z,10.40
2023-02-11T12:46:31.822Z,9.68
2023-02-11T12:49:27.304Z,9.07
2023-02-11T12:52:07.311Z,11.32
2023-02-11T12:54:40.330Z,10.10
2023-02-11T12:57:18.752Z,10.95
2023-02-11T12:59:53.706Z,10.00
2023-02-11T13:02:28.369Z,10.75
2023-02-11T13:05:00.104Z,10.10
2023-02-11T13:07:33.438Z,10.70
2023-02-11T13:10:05.936Z,9.57
2023-02-11T13:12:36.932Z,10.73
2023-02-11T13:15:07.909Z,11.10
2023-02-11T13:17:43.531Z,10.13
2023-02-11T13:20:24.104Z,10.18
2023-02-11T13:22:59.458Z,10.65
2023-02-11T13:25:36.159Z,9.77
2023-02-11T13:28:17.828Z,10.80
2023-02-11T13:30:47.202Z,11.05
2023-02-11T13:33:31.427Z,11.35
2023-02-11T13:36:15.687Z,11.35
2023-02-11T13:38:53.985Z,11.02
2023-02-11T13:41:27.914Z,11.05
2023-02-11T13:44:02.575Z,9.90
2023-02-11T13:46:49.325Z,10.27
2023-02-11T13:49:22.587Z,10.48
2023-02-11T13:51:51.915Z,9.65
2023-02-11T13:54:32.753Z,9.77
2023-02-11T13:57:34.386Z,10.70
2023-02-11T14:00:20.307Z,10.48
2023-02-11T14:03:37.998Z,9.45
2023-02-11T14:06:14.316Z,9.77
2023-02-11T14:09:02.611Z,8.68
2023-02-11T14:11:50.202Z,10.23
2023-02-11T14:14:23.464Z,10.05
2023-02-11T14:17:34.868Z,9.52
2023-02-11T14:20:24.146Z,10.48
2023-02-11T14:22:53.344Z,9.32
2023-02-11T14:25:24.862Z,9.80
2023-02-11T14:27:57.532Z,9.50
2023-02-11T14:30:46.276Z,8.98
2023-02-11T14:33:43.816Z,8.77
2023-02-11T14:36:30.016Z,9.20
2023-02-11T14:39:07.733Z,9.93
2023-02-11T14:41:41.904Z,9.43
2023-02-11T14:44:15.230Z,9.38
2023-02-11T14:46:46.322Z,10.32
2023-02-11T14:49:24.198Z,10.45
2023-02-11T14:51:54.489Z,8.73
2023-02-11T14:54:24.972Z,8.65
2023-02-11T14:57:13.343Z,9.75
2023-02-11T14:59:52.434Z,9.80
2023-02-11T15:02:23.124Z,10.52
2023-02-11T15:04:52.337Z,9.15
2023-02-11T15:07:20.684Z,9.57
2023-02-11T15:09:51.315Z,10.40
2023-02-11T15:12:23.727Z,9.75
2023-02-11T15:14:54.838Z,9.95
2023-02-11T15:17:26.200Z,10.00
2023-02-11T15:19:59.631Z,9.77
2023-02-11T15:22:32.441Z,9.45
2023-02-11T15:25:02.198Z,9.55
2023-02-11T15:27:39.833Z,9.23
2023-02-11T15:30:24.681Z,9.85
2023-02-11T15:32:55.304Z,9.85
2023-02-11T15:35:25.090Z,8.60
2023-02-11T15:37:53.088Z,9.88
2023-02-11T15:40:24.584Z,9.18
2023-02-11T15:42:59.515Z,10.35
2023-02-11T15:45:30.845Z,10.00
2023-02-11T15:48:07.092Z,9.15
2023-02-11T15:50:38.340Z,10.00
2023-02-11T15:53:27.001Z,9.25
2023-02-11T15:56:00.970Z,9.73
2023-02-11T15:58:29.397Z,9.63
2023-02-11T16:00:57.250Z,8.90
2023-02-11T16:03:27.599Z,10.18
2023-02-11T16:05:56.755Z,9.85
2023-02-11T16:08:26.901Z,9.13
2023-02-11T16:10:56.395Z,9.45
2023-02-11T16:13:25.666Z,9.90
2023-02-11T16:15:55.760Z,11.00
2023-02-11T16:18:37.941Z,9.07
2023-02-11T16:21:14.659Z,10.00
2023-02-11T16:23:49.107Z,9.63
2023-02-11T16:26:24.966Z,10.15
2023-02-11T16:28:53.255Z,9.60
2023-02-11T16:31:21.193Z,10.13
2023-02-11T16:33:49.243Z,8.98
2023-02-11T16:36:18.517Z,9.95
2023-02-11T16:38:46.604Z,10.82
2023-02-11T16:41:14.276Z,9.60
2023-02-11T16:43:42.292Z,9.85
2023-02-11T16:46:14.757Z,9.23
2023-02-11T16:48:43.056Z,9.43
2023-02-11T16:51:12.341Z,9.90
2023-02-11T16:53:41.973Z,9.23
2023-02-11T16:56:14.984Z,9.65
2023-02-11T16:58:43.142Z,20.60
2023-02-11T17:01:13.752Z,9.88
2023-02-11T17:03:42.286Z,7.50
2023-02-11T17:06:11.039Z,9.25
2023-02-11T17:08:39.038Z,7.90
2023-02-11T17:11:08.246Z,8.77
2023-02-11T17:13:36.228Z,9.02
2023-02-11T17:16:03.970Z,8.68
2023-02-11T17:18:31.964Z,8.30
2023-02-11T17:20:59.578Z,8.35
2023-02-11T17:23:27.630Z,8.52
2023-02-11T17:25:56.287Z,9.00
2023-02-11T17:28:25.736Z,10.02
2023-02-11T17:30:53.326Z,8.15
2023-02-11T17:33:21.678Z,8.75
2023-02-11T17:35:49.428Z,10.20
2023-02-11T17:38:17.570Z,9.55
2023-02-11T17:40:45.098Z,8.25
2023-02-11T17:43:13.082Z,8.85
2023-02-11T17:45:42.951Z,9.45
2023-02-11T17:48:11.055Z,8.82
2023-02-11T17:50:38.703Z,8.68
2023-02-11T17:53:06.868Z,9.77
2023-02-11T17:55:35.276Z,10.35
2023-02-11T17:58:03.567Z,10.20
2023-02-11T18:00:31.454Z,9.93
2023-02-11T18:03:00.983Z,9.07
2023-02-11T18:05:29.018Z,8.68
2023-02-11T18:07:57.000Z,8.40
2023-02-11T18:10:24.570Z,7.68
2023-02-11T18:12:52.727Z,7.90
2023-02-11T18:15:20.231Z,8.68
2023-02-11T18:17:48.304Z,8.25
2023-02-11T18:20:17.851Z,8.07
2023-02-11T18:22:45.832Z,7.63
2023-02-11T18:25:14.690Z,8.18
2023-02-11T18:27:43.020Z,7.95
2023-02-11T18:30:15.880Z,7.85
2023-02-11T18:32:43.881Z,8.60
2023-02-11T18:35:14.842Z,8.63
2023-02-11T18:37:44.769Z,8.57
2023-02-11T18:40:13.780Z,8.80
2023-02-11T18:42:41.793Z,7.75
2023-02-11T18:45:12.631Z,8.25
2023-02-11T18:47:41.099Z,8.45
2023-02-11T18:50:10.509Z,9.40
2023-02-11T18:52:38.629Z,8.55
2023-02-11T18:55:09.192Z,8.63
2023-02-11T18:57:37.388Z,9.00
2023-02-11T19:00:05.918Z,9.50
2023-02-11T19:02:34.730Z,9.75
2023-02-11T19:05:02.502Z,10.23
2023-02-11T19:07:30.789Z,9.15
2023-02-11T19:09:58.456Z,9.27
2023-02-11T19:12:28.267Z,11.73
2023-02-11T19:14:55.968Z,10.20
2023-02-11T19:17:24.035Z,8.95
2023-02-11T19:19:51.718Z,10.98
2023-02-11T19:22:19.691Z,10.48
2023-02-11T19:24:47.470Z,9.95
2023-02-11T19:27:15.474Z,9.50
2023-02-11T19:29:44.681Z,9.25
2023-02-11T19:32:12.729Z,10.52
2023-02-11T19:34:40.543Z,10.52
2023-02-11T19:37:08.923Z,11.13
2023-02-11T19:39:36.743Z,10.05
2023-02-11T19:42:05.014Z,10.32
2023-02-11T19:44:32.699Z,10.20
2023-02-11T19:47:02.323Z,9.93
2023-02-11T19:49:30.039Z,8.68
2023-02-11T19:51:58.045Z,8.50
2023-02-11T19:54:28.703Z,10.05
2023-02-11T19:56:57.235Z,9.10
2023-02-11T19:59:25.315Z,9.40
2023-02-11T20:01:53.324Z,9.45
2023-02-11T20:04:22.332Z,10.00
2023-02-11T20:06:50.337Z,10.20
2023-02-11T20:09:18.197Z,10.30
2023-02-11T20:11:46.632Z,10.95
2023-02-11T20:14:14.705Z,11.30
2023-02-11T20:16:48.583Z,10.35
2023-02-11T20:19:19.547Z,10.65
2023-02-11T20:21:51.757Z,10.02
2023-02-11T20:24:20.488Z,10.98
2023-02-11T20:26:49.333Z,10.75
2023-02-11T20:29:18.068Z,10.27
2023-02-11T20:31:46.370Z,11.88
2023-02-11T20:34:14.390Z,10.82
2023-02-11T20:36:42.548Z,9.45
2023-02-11T20:39:12.218Z,11.15
2023-02-11T20:41:40.189Z,11.75
2023-02-11T20:44:10.368Z,10.95
2023-02-11T20:46:39.887Z,11.15
2023-02-11T20:49:07.959Z,10.70
2023-02-11T20:51:36.260Z,10.30
2023-02-11T20:54:04.220Z,10.38
2023-02-11T20:56:36.780Z,9.60
2023-02-11T20:59:05.387Z,9.38
2023-02-11T21:01:35.711Z,10.00
2023-02-11T21:04:05.389Z,9.68
2023-02-11T21:06:36.590Z,10.13
2023-02-11T21:09:06.627Z,9.27
2023-02-11T21:11:36.268Z,9.60
2023-02-11T21:14:04.088Z,9.77
2023-02-11T21:16:32.742Z,10.25
2023-02-11T21:19:01.097Z,10.40
2023-02-11T21:21:30.140Z,9.65
2023-02-11T21:23:58.381Z,9.90
2023-02-11T21:29:10.828Z,10.20
2023-02-11T21:31:39.995Z,10.43
2023-02-11T21:34:08.916Z,10.82
2023-02-11T21:36:38.295Z,9.85
2023-02-11T21:39:05.841Z,10.60
2023-02-11T21:41:35.115Z,10.10
2023-02-11T21:44:05.754Z,10.18
2023-02-11T21:46:40.589Z,10.45
2023-02-11T21:49:08.623Z,9.25
2023-02-11T21:51:37.121Z,9.85
2023-02-11T21:54:05.158Z,9.68
2023-02-11T21:56:33.255Z,10.85
2023-02-11T21:59:00.839Z,12.05
2023-02-11T22:01:31.079Z,10.73
2023-02-11T22:04:01.684Z,11.60
2023-02-11T22:06:33.364Z,11.77
2023-02-11T22:09:03.208Z,11.02
2023-02-11T22:11:31.535Z,10.35
2023-02-11T22:13:59.477Z,11.35
2023-02-11T22:16:28.728Z,10.93
2023-02-11T22:18:57.221Z,11.90
2023-02-11T22:21:27.155Z,11.82
2023-02-11T22:23:56.069Z,10.20
2023-02-11T22:26:26.470Z,10.48
2023-02-11T22:28:54.775Z,10.32
2023-02-11T22:31:25.065Z,10.30
2023-02-11T22:33:52.837Z,9.85
2023-02-11T22:36:23.265Z,10.00
2023-02-11T22:38:53.192Z,9.93
2023-02-11T22:41:22.931Z,9.65
2023-02-11T22:43:50.676Z,10.20
2023-02-11T22:46:20.060Z,11.30
2023-02-11T22:48:48.502Z,9.52
2023-02-11T22:51:18.631Z,9.70
2023-02-11T22:53:51.445Z,9.82
2023-02-11T22:56:20.001Z,10.68
2023-02-11T22:58:48.094Z,11.05
2023-02-11T23:01:16.113Z,10.70
2023-02-11T23:03:44.174Z,9.60
2023-02-11T23:06:12.386Z,10.02
2023-02-11T23:08:41.105Z,10.82
2023-02-11T23:11:13.679Z,9.98
2023-02-11T23:13:42.402Z,10.20
2023-02-11T23:16:11.942Z,10.95
2023-02-11T23:18:41.972Z,10.70
2023-02-11T23:21:12.854Z,9.27
2023-02-11T23:23:40.475Z,11.07
2023-02-11T23:26:11.626Z,10.18
2023-02-11T23:28:39.866Z,11.00
2023-02-11T23:31:16.799Z,12.63
2023-02-11T23:33:44.575Z,11.65
2023-02-11T23:36:13.283Z,10.32
2023-02-11T23:38:40.802Z,10.93
2023-02-11T23:41:10.345Z,11.70
2023-02-11T23:43:38.087Z,10.05
2023-02-11T23:46:07.284Z,10.70
2023-02-11T23:48:34.788Z,10.50
2023-02-11T23:51:02.831Z,10.13
2023-02-11T23:53:30.330Z,11.98
2023-02-11T23:55:58.483Z,9.98
2023-02-11T23:58:27.517Z,10.23
